createdAt,value
2019-04-29T00:00:13.599Z,41.10
2019-04-29T00:03:08.346Z,41.10
2019-04-29T00:06:01.636Z,41.10
2019-04-29T00:08:57.136Z,41.10
2019-04-29T00:11:51.227Z,41.10
2019-04-29T00:14:46.980Z,41.20
2019-04-29T00:17:48.159Z,41.30
2019-04-29T00:20:49.405Z,41.30
2019-04-29T00:23:43.178Z,41.30
2019-04-29T00:26:36.985Z,41.40
2019-04-29T00:29:32.490Z,41.30
2019-04-29T00:32:27.952Z,41.40
2019-04-29T00:35:21.271Z,41.40
2019-04-29T00:38:34.320Z,41.40
2019-04-29T00:41:46.122Z,41.50
2019-04-29T00:44:39.639Z,41.50
2019-04-29T00:47:33.323Z,41.60
2019-04-29T00:50:27.153Z,41.60
2019-04-29T00:53:20.565Z,41.60
2019-04-29T00:56:13.994Z,41.60
2019-04-29T00:59:08.022Z,41.60
2019-04-29T01:02:00.942Z,41.70
2019-04-29T01:04:53.536Z,41.70
2019-04-29T01:07:47.623Z,41.80
2019-04-29T01:10:41.393Z,41.80
2019-04-29T01:13:33.930Z,41.90
2019-04-29T01:16:29.171Z,41.80
2019-04-29T01:19:22.343Z,42.00
2019-04-29T01:22:16.781Z,42.10
2019-04-29T01:25:11.465Z,42.00
2019-04-29T01:28:21.479Z,42.10
2019-04-29T01:31:20.370Z,42.10
2019-04-29T01:34:22.764Z,42.10
2019-04-29T01:37:16.698Z,42.30
2019-04-29T01:40:34.546Z,42.40
2019-04-29T01:43:46.803Z,42.30
2019-04-29T01:46:41.639Z,42.40
2019-04-29T01:49:36.930Z,43.00
2019-04-29T01:52:31.302Z,43.10
2019-04-29T01:55:24.521Z,42.50
2019-04-29T01:58:19.337Z,42.40
2019-04-29T02:01:14.213Z,42.40
2019-04-29T02:04:07.178Z,42.50
2019-04-29T02:07:01.209Z,42.50
2019-04-29T02:10:04.700Z,42.60
2019-04-29T02:12:59.564Z,42.70
2019-04-29T02:15:54.640Z,42.70
2019-04-29T02:18:47.249Z,42.50
2019-04-29T02:21:42.625Z,42.70
2019-04-29T02:24:36.827Z,42.80
2019-04-29T02:27:30.325Z,42.70
2019-04-29T02:30:41.335Z,42.80
2019-04-29T02:33:35.558Z,42.80
2019-04-29T02:36:30.315Z,42.70
2019-04-29T02:39:41.706Z,42.70
2019-04-29T02:42:44.363Z,42.90
2019-04-29T02:45:38.466Z,42.90
2019-04-29T02:48:34.641Z,42.90
2019-04-29T02:51:49.680Z,43.00
2019-04-29T02:54:44.846Z,43.00
2019-04-29T02:57:55.051Z,43.40
2019-04-29T03:01:06.896Z,42.90
2019-04-29T03:04:09.295Z,43.20
2019-04-29T03:07:02.857Z,43.30
2019-04-29T03:09:56.449Z,43.30
2019-04-29T03:12:49.810Z,42.90
2019-04-29T03:15:45.970Z,43.20
2019-04-29T03:18:44.234Z,43.30
2019-04-29T03:21:46.253Z,43.30
2019-04-29T03:24:40.909Z,43.10
2019-04-29T03:27:35.844Z,43.20
2019-04-29T03:30:32.295Z,43.30
2019-04-29T03:33:27.766Z,43.40
2019-04-29T03:36:23.216Z,43.40
2019-04-29T03:39:17.999Z,43.50
2019-04-29T03:42:12.456Z,43.50
2019-04-29T03:45:07.054Z,43.30
2019-04-29T03:48:02.883Z,43.50
2019-04-29T03:50:57.119Z,43.50
2019-04-29T03:53:51.828Z,43.50
2019-04-29T03:56:46.614Z,43.20
2019-04-29T03:59:41.131Z,43.60
2019-04-29T04:02:42.986Z,43.60
2019-04-29T04:05:46.938Z,43.60
2019-04-29T04:09:04.306Z,43.60
2019-04-29T04:11:41.997Z,43.50
2019-04-29T04:14:35.054Z,43.50
2019-04-29T04:18:06.749Z,43.60
2019-04-29T04:21:01.881Z,43.50
2019-04-29T04:23:58.364Z,43.50
2019-04-29T04:26:55.126Z,43.70
2019-04-29T04:29:48.586Z,43.80
2019-04-29T04:32:42.961Z,43.70
2019-04-29T04:35:39.805Z,43.60
2019-04-29T04:38:36.039Z,43.90
2019-04-29T04:41:28.482Z,43.80
2019-04-29T04:44:21.500Z,44.00
2019-04-29T04:47:19.130Z,43.90
2019-04-29T04:50:15.304Z,43.90
2019-04-29T04:53:09.650Z,44.30
2019-04-29T04:56:09.777Z,44.50
2019-04-29T04:59:04.834Z,44.50
2019-04-29T05:02:01.177Z,44.70
2019-04-29T05:05:08.713Z,47.90
2019-04-29T05:12:08.064Z,47.20
2019-04-29T05:15:01.785Z,46.60
2019-04-29T05:18:10.659Z,46.20
2019-04-29T05:21:25.005Z,45.90
2019-04-29T05:24:53.969Z,45.70
2019-04-29T05:30:46.479Z,45.30
2019-04-29T05:33:51.548Z,45.20
2019-04-29T05:36:55.781Z,45.00
2019-04-29T05:39:57.480Z,45.00
2019-04-29T05:42:59.492Z,44.80
2019-04-29T05:46:26.476Z,44.70
2019-04-29T05:50:12.114Z,44.70
2019-04-29T05:53:17.956Z,44.70
2019-04-29T05:56:12.776Z,44.70
2019-04-29T05:59:18.294Z,44.70
2019-04-29T06:05:48.694Z,44.70
2019-04-29T06:08:44.557Z,44.70
2019-04-29T06:11:43.616Z,44.70
2019-04-29T06:14:39.808Z,44.70
2019-04-29T06:17:40.161Z,44.70
2019-04-29T06:21:09.667Z,44.70
2019-04-29T06:25:05.980Z,44.70
2019-04-29T06:38:35.128Z,44.60
2019-04-29T06:41:32.421Z,44.50
2019-04-29T06:44:50.757Z,44.40
2019-04-29T06:47:51.693Z,44.40
2019-04-29T06:50:58.660Z,44.40
2019-04-29T06:53:57.843Z,44.40
2019-04-29T06:56:57.265Z,44.20
2019-04-29T07:00:03.338Z,44.20
2019-04-29T07:03:05.546Z,44.20
2019-04-29T07:06:01.821Z,44.20
2019-04-29T07:09:18.082Z,44.20
2019-04-29T07:12:42.743Z,44.00
2019-04-29T07:15:36.093Z,44.00
2019-04-29T07:18:31.592Z,43.90
2019-04-29T07:21:25.142Z,44.00
2019-04-29T07:24:24.219Z,43.70
2019-04-29T07:27:22.628Z,43.80
2019-04-29T07:30:59.239Z,43.70
2019-04-29T07:33:33.789Z,43.90
2019-04-29T07:36:28.153Z,43.70
2019-04-29T07:39:26.613Z,43.50
2019-04-29T07:45:53.862Z,43.80
2019-04-29T07:49:01.219Z,43.60
2019-04-29T08:02:31.625Z,43.60
2019-04-29T08:17:27.672Z,43.50
2019-04-29T08:20:44.061Z,43.40
2019-04-29T08:23:42.074Z,42.50
2019-04-29T08:26:47.323Z,42.80
2019-04-29T08:29:44.027Z,43.00
2019-04-29T08:36:38.421Z,42.70
2019-04-29T08:39:35.531Z,42.70
2019-04-29T08:42:46.461Z,42.30
2019-04-29T08:46:03.090Z,42.10
2019-04-29T08:48:52.925Z,41.80
2019-04-29T08:52:04.274Z,41.70
2019-04-29T08:55:10.793Z,41.60
2019-04-29T08:58:14.926Z,41.30
2019-04-29T09:01:12.252Z,41.10
2019-04-29T09:04:10.693Z,40.70
2019-04-29T09:07:12.877Z,40.50
2019-04-29T09:10:03.480Z,40.50
2019-04-29T09:13:15.554Z,40.30
2019-04-29T09:16:05.289Z,40.80
2019-04-29T09:19:15.758Z,39.90
2019-04-29T09:22:20.007Z,39.80
2019-04-29T09:25:31.699Z,39.80
2019-04-29T09:28:29.869Z,39.70
2019-04-29T09:31:39.290Z,39.70
2019-04-29T09:34:39.529Z,39.40
2019-04-29T09:37:37.368Z,39.10
2019-04-29T09:40:36.463Z,38.80
2019-04-29T09:43:49.051Z,38.80
2019-04-29T09:46:43.686Z,38.80
2019-04-29T09:49:40.475Z,38.90
2019-04-29T09:52:35.485Z,38.70
2019-04-29T09:55:30.655Z,38.80
2019-04-29T09:58:25.279Z,38.90
2019-04-29T10:01:44.409Z,38.70
2019-04-29T10:04:56.719Z,39.10
2019-04-29T10:07:50.220Z,39.10
2019-04-29T10:10:46.181Z,39.10
2019-04-29T10:13:42.246Z,39.20
2019-04-29T10:16:54.096Z,39.40
2019-04-29T10:20:04.494Z,39.30
2019-04-29T10:23:05.030Z,39.40
2019-04-29T10:26:02.763Z,39.40
2019-04-29T10:29:07.287Z,40.30
2019-04-29T10:32:02.437Z,39.40
2019-04-29T10:34:57.118Z,39.40
2019-04-29T10:37:50.237Z,39.40
2019-04-29T10:41:07.161Z,39.40
2019-04-29T10:44:21.574Z,39.60
2019-04-29T10:47:35.774Z,39.40
2019-04-29T10:50:35.490Z,39.40
2019-04-29T10:53:32.527Z,39.30
2019-04-29T10:56:29.119Z,39.30
2019-04-29T10:59:35.738Z,39.30
2019-04-29T11:02:39.540Z,39.20
2019-04-29T11:05:59.901Z,39.20
2019-04-29T11:08:58.839Z,39.30
2019-04-29T11:11:51.355Z,39.20
2019-04-29T11:14:44.880Z,39.80
2019-04-29T11:17:39.546Z,38.80
2019-04-29T11:20:32.915Z,38.30
2019-04-29T11:23:50.660Z,38.00
2019-04-29T11:27:11.945Z,37.70
2019-04-29T11:30:04.859Z,37.70
2019-04-29T11:33:06.141Z,37.40
2019-04-29T11:36:11.963Z,37.40
2019-04-29T11:39:09.051Z,37.80
2019-04-29T11:42:05.184Z,37.40
2019-04-29T11:45:01.905Z,37.50
2019-04-29T11:47:55.051Z,37.90
2019-04-29T11:51:00.744Z,36.80
2019-04-29T11:53:54.637Z,36.70
2019-04-29T11:56:48.812Z,36.70
2019-04-29T12:00:02.887Z,36.80
2019-04-29T12:02:58.296Z,36.60
2019-04-29T12:05:56.071Z,36.30
2019-04-29T12:08:53.089Z,36.00
2019-04-29T12:11:45.013Z,36.00
2019-04-29T12:14:52.807Z,35.90
2019-04-29T12:17:55.801Z,35.70
2019-04-29T12:21:16.274Z,36.00
2019-04-29T12:24:12.259Z,36.30
2019-04-29T12:27:08.483Z,36.60
2019-04-29T12:30:04.674Z,36.80
2019-04-29T12:33:04.441Z,37.10
2019-04-29T12:36:11.219Z,37.40
2019-04-29T12:39:42.772Z,37.40
2019-04-29T12:42:46.707Z,37.40
2019-04-29T12:45:48.252Z,37.60
2019-04-29T12:48:41.793Z,37.70
2019-04-29T12:51:35.394Z,37.70
2019-04-29T12:54:30.275Z,37.60
2019-04-29T12:57:26.467Z,37.60
2019-04-29T13:00:26.019Z,37.30
2019-04-29T13:03:39.243Z,37.10
2019-04-29T13:06:39.484Z,37.10
2019-04-29T13:09:38.261Z,37.30
2019-04-29T13:12:35.799Z,36.90
2019-04-29T13:16:00.433Z,36.90
2019-04-29T13:19:17.081Z,37.20
2019-04-29T13:22:10.601Z,37.30
2019-04-29T13:25:07.585Z,37.60
2019-04-29T13:28:03.855Z,38.10
2019-04-29T13:30:56.888Z,38.40
2019-04-29T13:33:56.471Z,38.40
2019-04-29T13:37:06.034Z,38.70
2019-04-29T13:39:47.762Z,38.80
2019-04-29T13:42:48.503Z,39.00
2019-04-29T13:45:50.503Z,39.10
2019-04-29T13:49:12.292Z,39.20
2019-04-29T13:51:58.814Z,39.20
2019-04-29T13:54:57.153Z,39.30
2019-04-29T13:57:54.824Z,39.30
2019-04-29T14:01:20.510Z,39.50
2019-04-29T14:04:25.097Z,39.40
2019-04-29T14:07:19.937Z,39.80
2019-04-29T14:10:14.828Z,39.80
2019-04-29T14:13:16.142Z,39.80
2019-04-29T14:16:07.762Z,40.00
2019-04-29T14:19:01.746Z,40.00
2019-04-29T14:21:57.084Z,39.90
2019-04-29T14:24:50.911Z,40.10
2019-04-29T14:27:45.799Z,40.20
2019-04-29T14:30:43.694Z,40.20
2019-04-29T14:33:39.698Z,40.30
2019-04-29T14:36:32.924Z,40.40
2019-04-29T14:39:36.512Z,41.10
2019-04-29T14:42:31.965Z,40.50
2019-04-29T14:45:37.980Z,40.50
2019-04-29T14:48:51.554Z,40.70
2019-04-29T14:51:45.525Z,40.70
2019-04-29T14:54:41.690Z,40.80
2019-04-29T14:57:34.177Z,40.80
2019-04-29T15:00:42.193Z,40.90
2019-04-29T15:03:56.291Z,41.50
2019-04-29T15:06:49.915Z,40.70
2019-04-29T15:09:58.769Z,41.00
2019-04-29T15:13:11.416Z,40.80
2019-04-29T15:16:13.994Z,41.10
2019-04-29T15:19:25.931Z,41.10
2019-04-29T15:22:24.326Z,41.10
2019-04-29T15:25:20.898Z,41.10
2019-04-29T15:28:18.739Z,41.00
2019-04-29T15:31:17.145Z,41.20
2019-04-29T15:34:14.407Z,41.20
2019-04-29T15:37:09.075Z,41.00
2019-04-29T15:40:05.065Z,41.00
2019-04-29T15:43:00.149Z,41.20
2019-04-29T15:45:53.146Z,41.10
2019-04-29T15:48:46.360Z,41.10
2019-04-29T15:51:39.112Z,41.20
2019-04-29T15:54:35.539Z,41.20
2019-04-29T15:57:32.751Z,41.10
2019-04-29T16:00:36.666Z,41.20
2019-04-29T16:03:24.080Z,41.50
2019-04-29T16:06:49.362Z,41.30
2019-04-29T16:10:00.513Z,41.30
2019-04-29T16:12:57.915Z,41.40
2019-04-29T16:15:51.967Z,41.30
2019-04-29T16:18:46.247Z,41.40
2019-04-29T16:21:41.560Z,41.40
2019-04-29T16:24:38.230Z,41.50
2019-04-29T16:27:30.554Z,41.40
2019-04-29T16:30:31.291Z,41.50
2019-04-29T16:33:20.922Z,41.30
2019-04-29T16:36:15.910Z,41.40
2019-04-29T16:39:11.257Z,41.50
2019-04-29T16:42:23.520Z,41.40
2019-04-29T16:45:17.666Z,41.40
2019-04-29T16:48:10.904Z,41.50
2019-04-29T16:51:06.854Z,41.60
2019-04-29T16:54:01.691Z,41.40
2019-04-29T16:56:55.393Z,41.40
2019-04-29T16:59:50.437Z,41.50
2019-04-29T17:02:46.136Z,41.50
2019-04-29T17:05:41.885Z,41.50
2019-04-29T17:08:50.709Z,41.50
2019-04-29T17:11:43.288Z,41.50
2019-04-29T17:15:02.206Z,41.50
2019-04-29T17:17:33.486Z,41.50
2019-04-29T17:20:27.968Z,41.40
2019-04-29T17:26:17.928Z,41.40
2019-04-29T17:29:38.851Z,41.40
2019-04-29T17:35:14.780Z,40.00
2019-04-29T17:35:17.088Z,41.00
2019-04-29T17:35:42.542Z,39.80
2019-04-29T17:38:34.803Z,39.50
2019-04-29T17:41:29.671Z,38.90
2019-04-29T17:44:40.712Z,38.50
2019-04-29T17:47:57.753Z,38.00
2019-04-29T17:51:02.196Z,37.80
2019-04-29T17:54:00.828Z,37.30
2019-04-29T17:57:28.167Z,37.00
2019-04-29T18:00:42.209Z,36.60
2019-04-29T18:03:57.314Z,36.50
2019-04-29T18:07:08.191Z,36.20
2019-04-29T18:09:59.827Z,36.30
2019-04-29T18:12:54.975Z,36.10
2019-04-29T18:16:00.837Z,36.00
2019-04-29T18:18:58.542Z,36.10
2019-04-29T18:22:20.829Z,35.90
2019-04-29T18:25:18.102Z,35.90
2019-04-29T18:28:12.062Z,36.00
2019-04-29T18:31:09.141Z,36.10
2019-04-29T18:34:03.487Z,35.90
2019-04-29T18:37:00.487Z,35.80
2019-04-29T18:39:57.601Z,35.80
2019-04-29T18:42:48.936Z,35.90
2019-04-29T18:45:53.901Z,35.80
2019-04-29T18:48:40.132Z,35.80
2019-04-29T18:51:36.691Z,35.70
2019-04-29T18:54:33.242Z,35.80
2019-04-29T18:57:30.903Z,35.90
2019-04-29T19:00:26.678Z,36.20
2019-04-29T19:03:29.837Z,36.00
2019-04-29T19:06:22.902Z,35.90
2019-04-29T19:09:20.561Z,36.00
2019-04-29T19:12:13.052Z,36.00
2019-04-29T19:15:11.526Z,36.20
2019-04-29T19:18:02.013Z,36.10
2019-04-29T19:20:56.984Z,35.90
2019-04-29T19:23:52.637Z,36.10
2019-04-29T19:26:46.479Z,35.90
2019-04-29T19:29:43.254Z,36.00
2019-04-29T19:32:36.656Z,36.00
2019-04-29T19:35:34.623Z,35.90
2019-04-29T19:38:25.348Z,35.90
2019-04-29T19:41:21.010Z,35.80
2019-04-29T19:44:15.526Z,36.60
2019-04-29T19:47:10.788Z,36.10
2019-04-29T19:50:02.333Z,36.10
2019-04-29T19:52:56.398Z,36.00
2019-04-29T19:56:01.256Z,35.90
2019-04-29T19:58:44.849Z,36.00
2019-04-29T20:01:38.317Z,36.20
2019-04-29T20:04:40.974Z,36.10
2019-04-29T20:07:41.219Z,36.50
2019-04-29T20:10:30.924Z,36.50
2019-04-29T20:13:31.296Z,36.40
2019-04-29T20:16:43.298Z,36.50
2019-04-29T20:19:36.443Z,36.30
2019-04-29T20:22:30.680Z,36.60
2019-04-29T20:25:30.947Z,36.90
2019-04-29T20:28:20.254Z,36.40
2019-04-29T20:31:18.755Z,36.30
2019-04-29T20:34:06.169Z,36.50
2019-04-29T20:36:59.485Z,36.50
2019-04-29T20:39:57.247Z,36.40
2019-04-29T20:42:48.952Z,36.50
2019-04-29T20:45:45.249Z,36.50
2019-04-29T20:48:38.020Z,36.30
2019-04-29T20:51:41.408Z,36.30
2019-04-29T20:54:27.327Z,36.40
2019-04-29T20:57:22.135Z,36.30
2019-04-29T21:00:20.119Z,36.40
2019-04-29T21:03:12.107Z,36.40
2019-04-29T21:06:06.323Z,36.40
2019-04-29T21:09:00.451Z,36.40
2019-04-29T21:12:11.957Z,36.40
2019-04-29T21:15:14.887Z,36.40
2019-04-29T21:18:05.357Z,36.30
2019-04-29T21:20:59.662Z,36.70
2019-04-29T21:23:52.354Z,36.60
2019-04-29T21:26:46.030Z,36.50
2019-04-29T21:29:39.102Z,36.50
2019-04-29T21:32:37.043Z,36.60
2019-04-29T21:35:36.839Z,36.70
2019-04-29T21:38:48.719Z,36.60
2019-04-29T21:42:08.856Z,36.50
2019-04-29T21:45:04.046Z,36.40
2019-04-29T21:48:00.428Z,36.40
2019-04-29T21:50:54.535Z,36.30
2019-04-29T21:53:48.482Z,36.20
2019-04-29T21:56:47.956Z,36.20
2019-04-29T21:59:46.002Z,36.10
2019-04-29T22:02:37.136Z,36.20
2019-04-29T22:05:30.259Z,36.20
2019-04-29T22:08:27.129Z,36.10
2019-04-29T22:11:18.480Z,36.00
2019-04-29T22:14:16.462Z,36.00
2019-04-29T22:17:10.446Z,36.00
2019-04-29T22:20:05.118Z,35.90
2019-04-29T22:23:01.129Z,36.00
2019-04-29T22:25:58.143Z,35.90
2019-04-29T22:28:53.342Z,35.90
2019-04-29T22:31:46.550Z,35.90
2019-04-29T22:34:40.028Z,35.90
2019-04-29T22:37:36.675Z,35.90
2019-04-29T22:40:34.231Z,35.90
2019-04-29T22:43:44.653Z,35.70
2019-04-29T22:46:44.755Z,35.80
2019-04-29T22:49:38.241Z,35.50
2019-04-29T22:52:31.529Z,35.50
2019-04-29T22:55:25.337Z,35.70
2019-04-29T22:58:17.793Z,35.90
2019-04-29T23:01:10.269Z,35.90
2019-04-29T23:04:02.610Z,36.00
2019-04-29T23:06:55.140Z,36.20
2019-04-29T23:09:47.990Z,36.20
2019-04-29T23:12:40.432Z,35.90
2019-04-29T23:15:35.701Z,36.00
2019-04-29T23:18:33.231Z,35.90
2019-04-29T23:21:48.060Z,35.90
2019-04-29T23:25:11.471Z,36.10
2019-04-29T23:28:08.151Z,36.10
2019-04-29T23:31:05.620Z,36.20
2019-04-29T23:33:59.087Z,36.20
2019-04-29T23:36:54.354Z,36.00
2019-04-29T23:39:48.507Z,35.90
2019-04-29T23:42:43.612Z,36.00
2019-04-29T23:45:36.834Z,36.00
2019-04-29T23:48:38.732Z,36.00
2019-04-29T23:51:27.445Z,36.10
2019-04-29T23:54:18.778Z,36.00
2019-04-29T23:57:24.829Z,35.90
